createdAt,value
2022-08-03T00:02:34.892Z,34.13
2022-08-03T00:05:38.346Z,33.93
2022-08-03T00:08:41.102Z,35.13
2022-08-03T00:11:44.204Z,34.41
2022-08-03T00:14:47.226Z,34.68
2022-08-03T00:17:53.594Z,34.58
2022-08-03T00:20:57.112Z,34.10
2022-08-03T00:24:00.728Z,33.27
2022-08-03T00:27:03.780Z,32.04
2022-08-03T00:30:07.682Z,31.14
2022-08-03T00:33:11.398Z,29.94
2022-08-03T00:36:14.399Z,29.19
2022-08-03T00:39:18.109Z,29.09
2022-08-03T00:42:21.153Z,28.17
2022-08-03T00:45:26.149Z,27.78
2022-08-03T00:48:33.352Z,27.42
2022-08-03T00:51:36.924Z,27.21
2022-08-03T00:54:40.724Z,27.01
2022-08-03T00:57:44.416Z,26.87
2022-08-03T01:00:47.492Z,26.65
2022-08-03T01:03:50.511Z,26.77
2022-08-03T01:07:14.620Z,27.00
2022-08-03T01:10:23.665Z,27.08
2022-08-03T01:14:04.519Z,27.09
2022-08-03T01:17:14.089Z,27.07
2022-08-03T01:20:19.102Z,26.89
2022-08-03T01:23:47.920Z,26.76
2022-08-03T01:27:06.643Z,26.59
2022-08-03T01:30:12.591Z,26.43
2022-08-03T01:33:27.290Z,26.49
2022-08-03T01:36:37.168Z,26.37
2022-08-03T01:39:41.798Z,26.20
2022-08-03T01:42:47.147Z,26.11
2022-08-03T01:45:50.600Z,25.95
2022-08-03T01:48:54.570Z,25.83
2022-08-03T01:52:04.379Z,25.77
2022-08-03T01:55:10.067Z,25.79
2022-08-03T01:58:16.169Z,25.81
2022-08-03T02:01:23.626Z,25.75
2022-08-03T02:04:28.646Z,25.77
2022-08-03T02:07:35.281Z,25.84
2022-08-03T02:10:41.325Z,26.01
2022-08-03T02:13:46.637Z,26.14
2022-08-03T02:16:50.368Z,26.29
2022-08-03T02:19:54.701Z,26.40
2022-08-03T02:22:57.395Z,26.68
2022-08-03T02:26:05.502Z,26.70
2022-08-03T02:29:20.901Z,26.79
2022-08-03T02:32:47.783Z,26.84
2022-08-03T02:35:52.610Z,26.94
2022-08-03T02:38:59.791Z,27.15
2022-08-03T02:42:03.463Z,27.32
2022-08-03T02:45:13.250Z,27.60
2022-08-03T02:48:21.062Z,27.80
2022-08-03T02:51:24.700Z,27.93
2022-08-03T02:54:29.174Z,28.07
2022-08-03T02:57:35.731Z,28.20
2022-08-03T03:00:39.918Z,28.34
2022-08-03T03:03:45.076Z,28.82
2022-08-03T03:06:49.648Z,28.78
2022-08-03T03:09:53.483Z,28.92
2022-08-03T03:12:58.739Z,29.06
2022-08-03T03:16:05.359Z,29.11
2022-08-03T03:19:10.036Z,29.18
2022-08-03T03:22:15.439Z,29.18
2022-08-03T03:25:20.139Z,29.14
2022-08-03T03:28:26.060Z,29.09
2022-08-03T03:31:29.393Z,28.96
2022-08-03T03:34:32.759Z,28.96
2022-08-03T03:37:36.834Z,28.92
2022-08-03T03:40:40.141Z,28.83
2022-08-03T03:43:44.296Z,28.72
2022-08-03T03:46:47.018Z,28.96
2022-08-03T03:49:52.480Z,28.71
2022-08-03T03:52:55.516Z,28.59
2022-08-03T03:56:02.358Z,28.42
2022-08-03T03:59:06.310Z,28.26
2022-08-03T04:02:10.559Z,28.13
2022-08-03T04:05:33.198Z,28.26
2022-08-03T04:08:54.974Z,28.44
2022-08-03T04:12:01.687Z,28.42
2022-08-03T04:15:06.954Z,28.25
2022-08-03T04:18:14.509Z,28.51
2022-08-03T04:21:20.552Z,28.84
2022-08-03T04:24:26.461Z,29.22
2022-08-03T04:27:35.683Z,29.53
2022-08-03T04:30:40.862Z,29.47
2022-08-03T04:33:45.672Z,29.25
2022-08-03T04:36:55.530Z,29.22
2022-08-03T04:40:03.783Z,29.25
2022-08-03T04:43:08.734Z,29.04
2022-08-03T04:46:12.381Z,28.70
2022-08-03T04:49:15.610Z,28.58
2022-08-03T04:52:18.933Z,28.79
2022-08-03T04:55:29.246Z,29.06
2022-08-03T04:58:32.376Z,29.06
2022-08-03T05:01:35.465Z,28.99
2022-08-03T05:04:41.405Z,28.97
2022-08-03T05:07:45.272Z,28.89
2022-08-03T05:10:48.571Z,28.78
2022-08-03T05:13:51.642Z,28.68
2022-08-03T05:16:54.676Z,28.58
2022-08-03T05:19:58.181Z,28.48
2022-08-03T05:23:02.535Z,28.46
2022-08-03T05:26:05.659Z,28.41
2022-08-03T05:29:09.132Z,28.32
2022-08-03T05:32:12.187Z,28.30
2022-08-03T05:36:00.477Z,28.32
2022-08-03T05:38:38.266Z,28.38
2022-08-03T05:41:41.257Z,28.49
2022-08-03T05:44:44.379Z,28.49
2022-08-03T05:47:48.547Z,28.61
2022-08-03T05:50:51.253Z,29.00
2022-08-03T05:53:54.325Z,28.86
2022-08-03T05:56:57.367Z,28.80
2022-08-03T06:00:00.666Z,28.82
2022-08-03T06:03:03.905Z,28.65
2022-08-03T06:06:07.047Z,28.40
2022-08-03T06:09:13.234Z,28.11
2022-08-03T06:12:16.580Z,27.84
2022-08-03T06:15:19.931Z,27.65
2022-08-03T06:18:24.644Z,27.56
2022-08-03T06:21:27.699Z,27.61
2022-08-03T06:24:31.001Z,27.77
2022-08-03T06:27:37.237Z,27.96
2022-08-03T06:30:41.332Z,28.07
2022-08-03T06:34:30.808Z,28.09
2022-08-03T06:37:07.373Z,27.92
2022-08-03T06:40:13.913Z,27.67
2022-08-03T06:43:17.194Z,27.44
2022-08-03T06:46:20.539Z,27.33
2022-08-03T06:49:23.745Z,27.34
2022-08-03T06:52:37.640Z,27.37
2022-08-03T06:55:42.466Z,27.42
2022-08-03T06:58:45.719Z,27.47
2022-08-03T07:01:48.768Z,27.42
2022-08-03T07:04:52.664Z,27.42
2022-08-03T07:07:57.509Z,27.50
2022-08-03T07:11:00.506Z,27.62
2022-08-03T07:14:03.617Z,27.88
2022-08-03T07:17:11.806Z,28.03
2022-08-03T07:20:15.830Z,28.02
2022-08-03T07:23:19.496Z,28.01
2022-08-03T07:26:22.564Z,27.84
2022-08-03T07:29:25.678Z,27.72
2022-08-03T07:32:32.003Z,27.57
2022-08-03T07:35:35.067Z,27.46
2022-08-03T07:38:38.215Z,27.30
2022-08-03T07:41:41.369Z,27.07
2022-08-03T07:44:45.017Z,26.88
2022-08-03T07:47:53.218Z,26.67
2022-08-03T07:50:56.943Z,26.41
2022-08-03T07:54:01.414Z,26.16
2022-08-03T07:57:04.586Z,25.99
2022-08-03T08:00:14.419Z,25.95
2022-08-03T08:03:17.691Z,25.91
2022-08-03T08:06:21.538Z,25.86
2022-08-03T08:09:24.657Z,25.84
2022-08-03T08:12:28.416Z,25.91
2022-08-03T08:15:32.337Z,25.89
2022-08-03T08:18:35.490Z,25.88
2022-08-03T08:21:53.063Z,25.79
2022-08-03T08:25:01.848Z,25.82
2022-08-03T08:28:31.872Z,25.83
2022-08-03T08:31:28.274Z,25.78
2022-08-03T08:34:31.325Z,25.70
2022-08-03T08:37:36.077Z,25.69
2022-08-03T08:40:39.120Z,25.67
2022-08-03T08:43:44.130Z,25.67
2022-08-03T08:46:48.398Z,25.66
2022-08-03T08:50:08.837Z,25.83
2022-08-03T08:53:17.611Z,25.70
2022-08-03T08:56:28.445Z,25.68
2022-08-03T08:59:48.905Z,25.68
2022-08-03T09:02:52.712Z,25.63
2022-08-03T09:05:56.583Z,25.64
2022-08-03T09:08:59.761Z,25.60
2022-08-03T09:12:27.169Z,25.45
2022-08-03T09:15:34.260Z,25.40
2022-08-03T09:18:37.710Z,25.23
2022-08-03T09:21:40.847Z,25.07
2022-08-03T09:25:24.290Z,24.95
2022-08-03T09:29:00.435Z,24.74
2022-08-03T09:32:05.057Z,24.49
2022-08-03T09:35:09.471Z,24.31
2022-08-03T09:38:15.778Z,24.23
2022-08-03T09:41:20.397Z,24.13
2022-08-03T09:44:42.842Z,24.10
2022-08-03T09:47:45.901Z,23.99
2022-08-03T09:50:58.623Z,23.94
2022-08-03T09:54:31.259Z,23.91
2022-08-03T09:57:34.533Z,23.92
2022-08-03T10:01:01.619Z,23.92
2022-08-03T10:04:05.406Z,23.94
2022-08-03T10:07:11.142Z,24.01
2022-08-03T10:10:30.318Z,23.99
2022-08-03T10:13:35.230Z,23.96
2022-08-03T10:16:41.604Z,23.95
2022-08-03T10:19:45.193Z,23.84
2022-08-03T10:22:48.582Z,23.80
2022-08-03T10:25:58.811Z,23.80
2022-08-03T10:29:04.811Z,23.73
2022-08-03T10:32:41.539Z,23.66
2022-08-03T10:35:46.132Z,23.52
2022-08-03T10:38:57.651Z,23.44
2022-08-03T10:42:02.716Z,23.35
2022-08-03T10:45:10.810Z,23.30
2022-08-03T10:48:14.749Z,23.20
2022-08-03T10:51:18.176Z,23.14
2022-08-03T10:54:58.615Z,23.14
2022-08-03T10:58:07.940Z,23.04
2022-08-03T11:01:14.397Z,22.98
2022-08-03T11:04:22.288Z,22.93
2022-08-03T11:07:26.436Z,22.86
2022-08-03T11:10:33.360Z,22.92
2022-08-03T11:13:36.544Z,22.82
2022-08-03T11:16:42.218Z,22.78
2022-08-03T11:19:57.926Z,22.76
2022-08-03T11:23:02.295Z,22.71
2022-08-03T11:26:12.132Z,22.68
2022-08-03T11:29:31.772Z,22.63
2022-08-03T11:32:46.551Z,22.59
2022-08-03T11:36:03.104Z,22.58
2022-08-03T11:39:17.203Z,22.54
2022-08-03T11:42:40.815Z,22.48
2022-08-03T11:46:02.811Z,22.37
2022-08-03T11:49:10.931Z,22.27
2022-08-03T11:52:15.785Z,22.16
2022-08-03T11:55:22.442Z,22.06
2022-08-03T11:59:16.989Z,21.94
2022-08-03T12:01:50.310Z,21.85
2022-08-03T12:04:55.095Z,21.77
2022-08-03T12:08:06.173Z,21.67
2022-08-03T12:11:13.529Z,21.59
2022-08-03T12:14:48.980Z,21.62
2022-08-03T12:17:43.751Z,21.60
2022-08-03T12:20:47.350Z,21.56
2022-08-03T12:23:51.185Z,21.52
2022-08-03T12:26:59.032Z,21.35
2022-08-03T12:30:04.412Z,21.25
2022-08-03T12:33:23.786Z,21.24
2022-08-03T12:36:29.311Z,21.20
2022-08-03T12:39:32.371Z,21.12
2022-08-03T12:42:37.216Z,21.04
2022-08-03T12:45:40.422Z,20.94
2022-08-03T12:49:11.759Z,20.90
2022-08-03T12:52:16.894Z,20.80
2022-08-03T12:55:24.047Z,20.73
2022-08-03T12:58:35.931Z,20.70
2022-08-03T13:01:49.151Z,20.60
2022-08-03T13:04:58.636Z,20.56
2022-08-03T13:08:01.807Z,20.55
2022-08-03T13:11:47.565Z,20.60
2022-08-03T13:14:49.533Z,20.62
2022-08-03T13:17:53.434Z,20.62
2022-08-03T13:20:56.504Z,20.63
2022-08-03T13:23:59.530Z,20.59
2022-08-03T13:28:03.922Z,20.59
2022-08-03T13:30:29.812Z,20.58
2022-08-03T13:33:33.741Z,20.54
2022-08-03T13:37:06.399Z,20.53
2022-08-03T13:40:02.769Z,20.49
2022-08-03T13:43:06.744Z,20.47
2022-08-03T13:46:09.743Z,20.48
2022-08-03T13:49:12.866Z,20.49
2022-08-03T13:52:16.488Z,20.49
2022-08-03T13:55:19.701Z,20.47
2022-08-03T13:58:22.855Z,20.44
2022-08-03T14:01:54.507Z,20.42
2022-08-03T14:04:49.786Z,20.40
2022-08-03T14:07:52.841Z,20.39
2022-08-03T14:11:01.284Z,20.35
2022-08-03T14:14:04.468Z,20.29
2022-08-03T14:17:07.507Z,20.28
2022-08-03T14:20:38.897Z,20.24
2022-08-03T14:23:40.486Z,20.21
2022-08-03T14:26:44.610Z,20.18
2022-08-03T14:29:47.553Z,20.16
2022-08-03T14:32:50.481Z,20.14
2022-08-03T14:35:54.076Z,20.10
2022-08-03T14:39:01.067Z,20.06
2022-08-03T14:42:04.607Z,20.06
2022-08-03T14:45:09.656Z,20.08
2022-08-03T14:50:32.161Z,20.09
2022-08-03T14:51:53.376Z,20.15
2022-08-03T14:54:57.298Z,20.07
2022-08-03T14:58:03.174Z,20.03
2022-08-03T15:02:04.650Z,20.00
2022-08-03T15:04:31.009Z,19.94
2022-08-03T15:07:34.115Z,19.92
2022-08-03T15:10:40.555Z,19.93
2022-08-03T15:13:47.704Z,19.87
2022-08-03T15:16:51.203Z,19.79
2022-08-03T15:20:03.796Z,19.69
2022-08-03T15:23:11.968Z,19.61
2022-08-03T15:26:30.833Z,19.56
2022-08-03T15:30:04.715Z,19.46
2022-08-03T15:33:00.148Z,19.38
2022-08-03T15:36:03.655Z,19.30
2022-08-03T15:39:07.471Z,19.31
2022-08-03T15:42:10.561Z,19.32
2022-08-03T15:45:13.622Z,19.30
2022-08-03T15:48:21.071Z,19.25
2022-08-03T15:51:29.650Z,19.16
2022-08-03T15:54:32.656Z,18.97
2022-08-03T15:59:03.989Z,18.81
2022-08-03T16:00:59.717Z,18.77
2022-08-03T16:04:02.893Z,18.79
2022-08-03T16:07:07.154Z,18.91
2022-08-03T16:10:19.275Z,18.92
2022-08-03T16:13:23.025Z,18.90
2022-08-03T16:16:46.026Z,18.86
2022-08-03T16:19:49.844Z,18.80
2022-08-03T16:22:52.988Z,18.79
2022-08-03T16:25:56.051Z,18.79
2022-08-03T16:28:59.057Z,18.78
2022-08-03T16:32:09.615Z,18.81
2022-08-03T16:35:19.167Z,18.85
2022-08-03T16:38:23.539Z,18.85
2022-08-03T16:41:27.026Z,18.83
2022-08-03T16:44:50.534Z,18.84
2022-08-03T16:48:01.622Z,18.85
2022-08-03T16:51:09.681Z,18.82
2022-08-03T16:54:14.268Z,18.84
2022-08-03T16:57:29.724Z,18.92
2022-08-03T17:00:41.597Z,18.90
2022-08-03T17:04:02.222Z,18.89
2022-08-03T17:07:07.702Z,18.75
2022-08-03T17:10:13.535Z,18.56
2022-08-03T17:13:21.683Z,18.54
2022-08-03T17:16:25.833Z,18.51
2022-08-03T17:19:32.275Z,18.49
2022-08-03T17:22:40.266Z,18.44
2022-08-03T17:26:01.994Z,18.42
2022-08-03T17:29:12.528Z,18.36
2022-08-03T17:32:21.698Z,18.29
2022-08-03T17:35:36.577Z,18.26
2022-08-03T17:38:42.573Z,18.34
2022-08-03T17:41:48.941Z,18.42
2022-08-03T17:44:54.315Z,18.46
2022-08-03T17:47:59.630Z,18.46
2022-08-03T17:51:17.293Z,18.49
2022-08-03T17:54:31.521Z,18.53
2022-08-03T17:58:02.025Z,18.58
2022-08-03T18:01:59.126Z,18.61
2022-08-03T18:05:16.244Z,18.66
2022-08-03T18:08:30.873Z,18.69
2022-08-03T18:11:39.024Z,18.66
2022-08-03T18:14:57.378Z,18.64
2022-08-03T18:18:10.837Z,18.62
2022-08-03T18:21:16.677Z,18.61
2022-08-03T18:24:21.565Z,18.63
2022-08-03T18:27:45.552Z,18.65
2022-08-03T18:34:33.091Z,18.68
2022-08-03T18:37:52.160Z,18.68
2022-08-03T18:40:56.205Z,18.67
2022-08-03T18:44:06.870Z,18.67
2022-08-03T18:47:50.473Z,18.68
2022-08-03T18:51:28.518Z,18.67
2022-08-03T18:55:01.169Z,18.64
2022-08-03T18:58:29.244Z,18.62
2022-08-03T19:01:59.708Z,18.59
2022-08-03T19:05:08.783Z,18.56
2022-08-03T19:08:28.686Z,18.60
2022-08-03T19:12:13.189Z,18.60
2022-08-03T19:15:10.522Z,18.59
2022-08-03T19:18:18.579Z,18.58
2022-08-03T19:21:23.521Z,18.54
2022-08-03T19:24:27.907Z,18.55
2022-08-03T19:27:32.296Z,18.53
2022-08-03T19:34:03.239Z,18.53
2022-08-03T19:37:10.868Z,18.54
2022-08-03T19:40:19.772Z,18.53
2022-08-03T19:43:24.995Z,18.61
2022-08-03T19:46:44.760Z,18.60
2022-08-03T19:50:05.098Z,18.57
2022-08-03T19:53:14.001Z,18.57
2022-08-03T19:56:23.498Z,18.59
2022-08-03T19:59:28.147Z,18.59
2022-08-03T20:02:31.448Z,18.59
2022-08-03T20:05:44.863Z,18.61
2022-08-03T20:08:54.885Z,18.58
2022-08-03T20:11:58.328Z,18.54
2022-08-03T20:15:01.872Z,18.49
2022-08-03T20:18:04.930Z,18.46
2022-08-03T20:21:15.217Z,18.47
2022-08-03T20:24:27.396Z,18.48
2022-08-03T20:28:06.668Z,18.46
2022-08-03T20:30:59.755Z,18.47
2022-08-03T20:34:03.163Z,18.51
2022-08-03T20:37:06.255Z,18.51
2022-08-03T20:40:12.996Z,18.48
2022-08-03T20:43:19.865Z,18.43
2022-08-03T20:46:31.032Z,18.40
2022-08-03T20:49:45.759Z,18.36
2022-08-03T20:52:50.540Z,18.31
2022-08-03T20:56:02.303Z,18.29
2022-08-03T20:59:14.923Z,18.30
2022-08-03T21:02:19.736Z,18.23
2022-08-03T21:05:51.266Z,18.14
2022-08-03T21:09:05.662Z,18.09
2022-08-03T21:12:18.432Z,18.12
2022-08-03T21:13:02.301Z,18.53
2022-08-03T21:13:04.350Z,18.66
2022-08-03T21:16:03.015Z,18.20
2022-08-03T21:18:55.469Z,18.24
2022-08-03T21:21:59.619Z,18.21
2022-08-03T21:25:09.042Z,18.21
2022-08-03T21:28:13.454Z,18.23
2022-08-03T21:31:26.841Z,18.23
2022-08-03T21:34:31.010Z,18.27
2022-08-03T21:37:34.255Z,18.31
2022-08-03T21:40:37.678Z,18.33
2022-08-03T21:43:40.737Z,18.39
2022-08-03T21:46:44.764Z,18.41
2022-08-03T21:50:08.811Z,18.47
2022-08-03T21:53:15.236Z,18.50
2022-08-03T21:56:20.629Z,18.47
2022-08-03T21:59:24.293Z,18.49
2022-08-03T22:02:32.507Z,18.51
2022-08-03T22:05:43.495Z,18.51
2022-08-03T22:08:48.544Z,18.56
2022-08-03T22:11:56.631Z,18.62
2022-08-03T22:15:02.774Z,18.64
2022-08-03T22:18:06.224Z,18.66
2022-08-03T22:21:12.554Z,18.69
2022-08-03T22:24:19.796Z,18.70
2022-08-03T22:27:30.837Z,18.73
2022-08-03T22:30:34.300Z,18.70
2022-08-03T22:33:38.666Z,18.69
2022-08-03T22:36:42.366Z,18.71
2022-08-03T22:39:46.153Z,18.75
2022-08-03T22:42:52.719Z,18.82
2022-08-03T22:46:09.803Z,18.87
2022-08-03T22:49:16.052Z,18.86
2022-08-03T22:52:19.318Z,18.82
2022-08-03T22:55:24.942Z,18.79
2022-08-03T22:58:28.288Z,18.76
2022-08-03T23:01:37.980Z,18.79
2022-08-03T23:04:42.412Z,18.79
2022-08-03T23:07:46.229Z,18.80
2022-08-03T23:10:50.715Z,18.81
2022-08-03T23:13:56.119Z,18.84
2022-08-03T23:17:03.950Z,18.83
2022-08-03T23:20:09.467Z,18.83
2022-08-03T23:23:13.014Z,18.80
2022-08-03T23:26:17.908Z,18.78
2022-08-03T23:29:22.527Z,18.78
2022-08-03T23:32:29.076Z,18.89
2022-08-03T23:36:29.004Z,18.80
2022-08-03T23:39:15.351Z,18.82
2022-08-03T23:42:20.836Z,18.88
2022-08-03T23:45:25.532Z,18.98
2022-08-03T23:48:28.912Z,19.06
2022-08-03T23:51:37.679Z,19.16
2022-08-03T23:55:08.335Z,19.25
2022-08-03T23:58:32.824Z,19.33
